»·PEaware :: N292MC S31-W04

N292MC :: S31-W04

FLIGHT INFORMATION

Flight Status: Arrived
Operator: Privately registered:
United States
More flights under this callsign
Pilot: Maurice C. (12314)
Aircraft: Unknown
(KODI)
More flights by this aircraft type
Origin: S31 Lopez Island
United States
Destination: W04 Ocean Shores Mun
United States
More flights between these airports :: More routes between these airports
Route: WATTR WONKU
File this flight plan on PilotEdge
Remarks: ALPHABET CHALLENGE
Altitude:
(Current/Filed)
5,500ft
Speed:
(Current/Filed)
180kts
Departed: 12-May-20 02:23 PM
Arrived: 12-May-20 03:19 PM
Distance/Time
Traveled:
101nm/0:55
Distance/Time
To Go:
Arrived

Flight Plot

Page will automatically refresh every two minutes.

Flight plan parsing failed; only flown route is shown


Map Options




Map Legend


Flown Route
Filed Route
Departure Airport
Arrival Airport
Navaid (VOR, NDB)
Fix

Horizontal Profiles

Position Reports

Time Latitude Longitude Heading Altitude Ground
Speed
12-May-20 14:14 48.486280 -122.936554 270 208ft 0kts
12-May-20 14:15 48.486280 -122.936554 269 208ft 0kts
12-May-20 14:16 48.486280 -122.936554 269 208ft 0kts
12-May-20 14:17 48.486280 -122.936554 269 208ft 0kts
12-May-20 14:18 48.486280 -122.936557 269 208ft 0kts
12-May-20 14:19 48.486280 -122.936557 269 208ft 0kts
12-May-20 14:20 48.486280 -122.936557 269 208ft 0kts
12-May-20 14:21 48.487775 -122.937127 331 209ft 2kts
12-May-20 14:22 48.474303 -122.937551 176 575ft 115kts
12-May-20 14:23 48.434213 -122.936955 179 1445ft 160kts
12-May-20 14:24 48.389178 -122.937680 180 2222ft 162kts
12-May-20 14:25 48.344131 -122.938262 180 2970ft 161kts
12-May-20 14:26 48.299448 -122.938803 180 3687ft 160kts
12-May-20 14:27 48.255223 -122.939339 180 4381ft 160kts
12-May-20 14:28 48.211327 -122.939866 180 5064ft 158kts
12-May-20 14:29 48.167041 -122.940472 181 5509ft 167kts
12-May-20 14:30 48.120626 -122.934741 160 5329ft 180kts
12-May-20 14:31 48.073719 -122.906827 162 4553ft 188kts
12-May-20 14:32 48.024709 -122.881537 162 3728ft 190kts
12-May-20 14:33 47.975704 -122.856072 162 2973ft 174kts
12-May-20 14:34 47.933903 -122.834876 162 2952ft 153kts
12-May-20 14:35 47.896841 -122.815620 162 2963ft 150kts
12-May-20 14:36 47.860975 -122.797062 162 3026ft 150kts
12-May-20 14:37 47.821901 -122.787303 199 3024ft 150kts
12-May-20 14:38 47.785772 -122.810918 200 3024ft 151kts
12-May-20 14:39 47.748630 -122.832362 200 3024ft 151kts
12-May-20 14:40 47.711089 -122.853952 200 3018ft 151kts
12-May-20 14:41 47.673469 -122.875540 200 3017ft 151kts
12-May-20 14:42 47.639424 -122.895051 200 3041ft 148kts
12-May-20 14:43 47.606223 -122.914061 200 3037ft 148kts
12-May-20 14:44 47.573314 -122.932867 199 3035ft 149kts
12-May-20 14:45 47.540079 -122.951832 200 3023ft 150kts
12-May-20 14:46 47.505954 -122.971303 200 3021ft 150kts
12-May-20 14:47 47.471220 -122.991063 200 3013ft 150kts
12-May-20 14:48 47.436457 -123.010823 200 3002ft 150kts
12-May-20 14:49 47.401799 -123.030490 200 3014ft 149kts
12-May-20 14:50 47.367601 -123.049884 200 3020ft 149kts
12-May-20 14:51 47.333640 -123.069126 200 3014ft 150kts
12-May-20 14:52 47.299875 -123.088196 200 3013ft 149kts
12-May-20 14:53 47.266654 -123.106963 200 3009ft 150kts
12-May-20 14:54 47.232216 -123.126520 200 3006ft 149kts
12-May-20 14:55 47.212813 -123.171520 253 3010ft 156kts
12-May-20 14:56 47.202197 -123.225401 248 3011ft 155kts
12-May-20 14:57 47.189969 -123.282066 249 2688ft 167kts
12-May-20 14:58 47.177202 -123.341339 250 2239ft 165kts
12-May-20 14:59 47.164411 -123.400062 250 1971ft 158kts
12-May-20 15:00 47.152605 -123.453900 250 1979ft 155kts
12-May-20 15:01 47.139968 -123.507094 249 1986ft 155kts
12-May-20 15:02 47.127922 -123.561899 249 1992ft 155kts
12-May-20 15:03 47.116011 -123.616087 250 1997ft 154kts
12-May-20 15:04 47.104952 -123.666432 247 2031ft 150kts
12-May-20 15:05 47.094319 -123.714367 248 2001ft 154kts
12-May-20 15:06 47.083344 -123.764013 247 2001ft 153kts
12-May-20 15:07 47.072737 -123.811848 247 2000ft 153kts
12-May-20 15:08 47.062000 -123.860042 247 1993ft 153kts
12-May-20 15:09 47.054770 -123.909056 256 1994ft 148kts
12-May-20 15:10 47.049988 -123.952591 254 1671ft 128kts
12-May-20 15:11 47.044111 -123.991222 249 1516ft 111kts
12-May-20 15:12 47.037851 -124.028713 250 1286ft 117kts
12-May-20 15:13 47.032374 -124.064336 249 968ft 70kts
12-May-20 15:14 47.030210 -124.092484 258 851ft 93kts
12-May-20 15:15 47.027568 -124.122917 254 729ft 85kts
12-May-20 15:16 47.018581 -124.144919 198 344ft 71kts
12-May-20 15:17 47.003206 -124.143416 165 20ft 47kts
12-May-20 15:18 46.999321 -124.143344 262 20ft 11kts
12-May-20 15:19 46.999511 -124.143978 259 20ft 0kts
12-May-20 15:20 46.999511 -124.143978 259 20ft 0kts

Navigation Log

Ident Type
Flight plan parsing failed, navigation log unavailable